sensor_id;sensor_type;location;lat;lon;timestamp;P1;durP1;ratioP1;P2;durP2;ratioP2
26163;SDS011;13914;48.178;11.716;2023-03-21T00:01:10;4.75;;;2.13;;
26163;SDS011;13914;48.178;11.716;2023-03-21T00:03:37;4.78;;;2.30;;
26163;SDS011;13914;48.178;11.716;2023-03-21T00:08:31;3.20;;;1.70;;
26163;SDS011;13914;48.178;11.716;2023-03-21T00:10:57;2.83;;;1.55;;
26163;SDS011;13914;48.178;11.716;2023-03-21T00:13:26;5.05;;;2.40;;
26163;SDS011;13914;48.178;11.716;2023-03-21T00:15:56;4.60;;;1.90;;
26163;SDS011;13914;48.178;11.716;2023-03-21T00:18:28;3.20;;;1.90;;
26163;SDS011;13914;48.178;11.716;2023-03-21T00:20:58;3.17;;;2.27;;
26163;SDS011;13914;48.178;11.716;2023-03-21T00:23:29;4.13;;;2.00;;
26163;SDS011;13914;48.178;11.716;2023-03-21T00:25:57;2.88;;;1.67;;
26163;SDS011;13914;48.178;11.716;2023-03-21T00:28:24;2.45;;;1.25;;
26163;SDS011;13914;48.178;11.716;2023-03-21T00:30:50;3.00;;;1.63;;
26163;SDS011;13914;48.178;11.716;2023-03-21T00:33:16;5.05;;;2.03;;
26163;SDS011;13914;48.178;11.716;2023-03-21T00:35:45;4.57;;;2.13;;
26163;SDS011;13914;48.178;11.716;2023-03-21T00:38:12;3.75;;;1.90;;
26163;SDS011;13914;48.178;11.716;2023-03-21T00:40:38;3.75;;;2.10;;
26163;SDS011;13914;48.178;11.716;2023-03-21T00:43:04;5.45;;;1.88;;
26163;SDS011;13914;48.178;11.716;2023-03-21T00:45:30;4.55;;;2.33;;
26163;SDS011;13914;48.178;11.716;2023-03-21T00:47:56;3.28;;;2.17;;
26163;SDS011;13914;48.178;11.716;2023-03-21T00:50:22;4.40;;;2.50;;
26163;SDS011;13914;48.178;11.716;2023-03-21T00:52:49;3.65;;;1.77;;
26163;SDS011;13914;48.178;11.716;2023-03-21T00:55:16;4.38;;;1.92;;
26163;SDS011;13914;48.178;11.716;2023-03-21T00:57:43;3.40;;;1.90;;
26163;SDS011;13914;48.178;11.716;2023-03-21T01:00:10;4.93;;;2.42;;
26163;SDS011;13914;48.178;11.716;2023-03-21T01:02:38;2.45;;;1.50;;
26163;SDS011;13914;48.178;11.716;2023-03-21T01:05:27;3.63;;;2.38;;
26163;SDS011;13914;48.178;11.716;2023-03-21T01:08:15;4.30;;;2.22;;
26163;SDS011;13914;48.178;11.716;2023-03-21T01:10:44;4.60;;;2.60;;
26163;SDS011;13914;48.178;11.716;2023-03-21T01:13:13;3.13;;;1.67;;
26163;SDS011;13914;48.178;11.716;2023-03-21T01:15:45;5.50;;;2.60;;
26163;SDS011;13914;48.178;11.716;2023-03-21T01:18:15;8.80;;;5.05;;
26163;SDS011;13914;48.178;11.716;2023-03-21T01:20:43;6.35;;;3.95;;
26163;SDS011;13914;48.178;11.716;2023-03-21T01:23:10;6.90;;;3.92;;
26163;SDS011;13914;48.178;11.716;2023-03-21T01:25:37;4.35;;;2.80;;
26163;SDS011;13914;48.178;11.716;2023-03-21T01:28:03;4.38;;;2.75;;
26163;SDS011;13914;48.178;11.716;2023-03-21T01:30:30;3.97;;;2.72;;
26163;SDS011;13914;48.178;11.716;2023-03-21T01:32:56;6.20;;;2.38;;
26163;SDS011;13914;48.178;11.716;2023-03-21T01:35:22;5.28;;;2.70;;
26163;SDS011;13914;48.178;11.716;2023-03-21T01:37:48;3.90;;;2.58;;
26163;SDS011;13914;48.178;11.716;2023-03-21T01:40:25;5.20;;;3.10;;
26163;SDS011;13914;48.178;11.716;2023-03-21T01:48:33;3.47;;;2.15;;
26163;SDS011;13914;48.178;11.716;2023-03-21T01:51:06;3.55;;;2.15;;
26163;SDS011;13914;48.178;11.716;2023-03-21T01:53:37;4.93;;;2.33;;
26163;SDS011;13914;48.178;11.716;2023-03-21T01:56:06;3.92;;;2.10;;
26163;SDS011;13914;48.178;11.716;2023-03-21T01:58:36;3.47;;;1.88;;
26163;SDS011;13914;48.178;11.716;2023-03-21T02:01:04;4.22;;;2.42;;
26163;SDS011;13914;48.178;11.716;2023-03-21T02:06:07;4.18;;;2.10;;
26163;SDS011;13914;48.178;11.716;2023-03-21T02:08:37;1.83;;;1.33;;
26163;SDS011;13914;48.178;11.716;2023-03-21T02:11:05;3.80;;;2.30;;
26163;SDS011;13914;48.178;11.716;2023-03-21T02:13:34;4.93;;;2.78;;
26163;SDS011;13914;48.178;11.716;2023-03-21T02:19:00;4.68;;;2.88;;
26163;SDS011;13914;48.178;11.716;2023-03-21T02:28:28;4.03;;;2.45;;
26163;SDS011;13914;48.178;11.716;2023-03-21T02:36:23;5.10;;;2.20;;
26163;SDS011;13914;48.178;11.716;2023-03-21T02:39:47;5.78;;;2.80;;
26163;SDS011;13914;48.178;11.716;2023-03-21T02:45:48;6.18;;;2.85;;
26163;SDS011;13914;48.178;11.716;2023-03-21T02:48:21;3.97;;;2.63;;
26163;SDS011;13914;48.178;11.716;2023-03-21T02:50:57;6.75;;;3.40;;
26163;SDS011;13914;48.178;11.716;2023-03-21T02:53:27;4.72;;;3.00;;
26163;SDS011;13914;48.178;11.716;2023-03-21T02:55:59;3.63;;;2.50;;
26163;SDS011;13914;48.178;11.716;2023-03-21T02:58:26;5.53;;;3.22;;
26163;SDS011;13914;48.178;11.716;2023-03-21T03:00:54;3.92;;;2.58;;
26163;SDS011;13914;48.178;11.716;2023-03-21T03:03:21;3.35;;;2.17;;
26163;SDS011;13914;48.178;11.716;2023-03-21T03:16:26;6.45;;;3.08;;
26163;SDS011;13914;48.178;11.716;2023-03-21T03:19:23;4.00;;;2.85;;
26163;SDS011;13914;48.178;11.716;2023-03-21T03:22:09;5.70;;;2.75;;
26163;SDS011;13914;48.178;11.716;2023-03-21T03:24:53;4.50;;;2.65;;
26163;SDS011;13914;48.178;11.716;2023-03-21T03:27:29;4.88;;;2.90;;
26163;SDS011;13914;48.178;11.716;2023-03-21T03:30:00;5.28;;;2.70;;
26163;SDS011;13914;48.178;11.716;2023-03-21T03:32:30;5.55;;;2.08;;
26163;SDS011;13914;48.178;11.716;2023-03-21T03:35:04;4.28;;;2.78;;
26163;SDS011;13914;48.178;11.716;2023-03-21T03:37:32;4.18;;;2.50;;
26163;SDS011;13914;48.178;11.716;2023-03-21T03:40:03;4.03;;;2.45;;
26163;SDS011;13914;48.178;11.716;2023-03-21T03:42:34;5.00;;;2.78;;
26163;SDS011;13914;48.178;11.716;2023-03-21T03:45:10;6.07;;;3.60;;
26163;SDS011;13914;48.178;11.716;2023-03-21T03:50:20;3.45;;;2.22;;
26163;SDS011;13914;48.178;11.716;2023-03-21T03:52:54;7.07;;;3.47;;
26163;SDS011;13914;48.178;11.716;2023-03-21T03:55:41;5.47;;;3.25;;
26163;SDS011;13914;48.178;11.716;2023-03-21T03:58:08;5.07;;;2.80;;
26163;SDS011;13914;48.178;11.716;2023-03-21T04:03:01;6.72;;;3.08;;
26163;SDS011;13914;48.178;11.716;2023-03-21T04:05:27;5.40;;;3.15;;
26163;SDS011;13914;48.178;11.716;2023-03-21T04:07:52;3.87;;;3.10;;
26163;SDS011;13914;48.178;11.716;2023-03-21T04:10:19;3.85;;;2.38;;
26163;SDS011;13914;48.178;11.716;2023-03-21T04:12:46;6.07;;;2.97;;
26163;SDS011;13914;48.178;11.716;2023-03-21T04:15:12;5.35;;;2.20;;
26163;SDS011;13914;48.178;11.716;2023-03-21T04:17:38;4.53;;;3.30;;
26163;SDS011;13914;48.178;11.716;2023-03-21T04:20:04;8.23;;;3.40;;
26163;SDS011;13914;48.178;11.716;2023-03-21T04:22:32;4.78;;;2.60;;
26163;SDS011;13914;48.178;11.716;2023-03-21T04:24:58;4.80;;;2.33;;
26163;SDS011;13914;48.178;11.716;2023-03-21T04:27:25;7.90;;;2.50;;
26163;SDS011;13914;48.178;11.716;2023-03-21T04:29:52;7.20;;;2.47;;
26163;SDS011;13914;48.178;11.716;2023-03-21T04:32:18;8.68;;;3.45;;
26163;SDS011;13914;48.178;11.716;2023-03-21T04:34:48;4.47;;;2.60;;
26163;SDS011;13914;48.178;11.716;2023-03-21T04:37:19;9.18;;;3.75;;
26163;SDS011;13914;48.178;11.716;2023-03-21T04:39:47;2.72;;;1.90;;
26163;SDS011;13914;48.178;11.716;2023-03-21T04:42:15;8.68;;;2.78;;
26163;SDS011;13914;48.178;11.716;2023-03-21T04:44:46;7.32;;;3.25;;
26163;SDS011;13914;48.178;11.716;2023-03-21T04:47:13;3.38;;;2.00;;
26163;SDS011;13914;48.178;11.716;2023-03-21T04:49:40;3.78;;;2.20;;
26163;SDS011;13914;48.178;11.716;2023-03-21T04:52:07;3.05;;;2.28;;
26163;SDS011;13914;48.178;11.716;2023-03-21T04:54:33;7.63;;;3.10;;
26163;SDS011;13914;48.178;11.716;2023-03-21T04:56:59;4.03;;;2.47;;
26163;SDS011;13914;48.178;11.716;2023-03-21T04:59:25;4.95;;;2.50;;
26163;SDS011;13914;48.178;11.716;2023-03-21T05:01:51;3.72;;;2.17;;
26163;SDS011;13914;48.178;11.716;2023-03-21T05:04:17;4.38;;;2.47;;
26163;SDS011;13914;48.178;11.716;2023-03-21T05:06:44;3.97;;;2.38;;
26163;SDS011;13914;48.178;11.716;2023-03-21T05:09:10;6.22;;;3.75;;
26163;SDS011;13914;48.178;11.716;2023-03-21T05:11:38;4.65;;;1.60;;
26163;SDS011;13914;48.178;11.716;2023-03-21T05:14:09;3.90;;;2.70;;
26163;SDS011;13914;48.178;11.716;2023-03-21T05:16:40;4.65;;;3.00;;
26163;SDS011;13914;48.178;11.716;2023-03-21T05:19:17;4.07;;;1.60;;
26163;SDS011;13914;48.178;11.716;2023-03-21T05:21:46;1.92;;;1.30;;
26163;SDS011;13914;48.178;11.716;2023-03-21T05:26:41;6.32;;;3.67;;
26163;SDS011;13914;48.178;11.716;2023-03-21T05:29:09;7.35;;;3.85;;
26163;SDS011;13914;48.178;11.716;2023-03-21T05:31:35;8.15;;;4.15;;
26163;SDS011;13914;48.178;11.716;2023-03-21T05:34:01;8.55;;;4.07;;
26163;SDS011;13914;48.178;11.716;2023-03-21T05:36:27;3.92;;;2.50;;
26163;SDS011;13914;48.178;11.716;2023-03-21T05:38:53;6.32;;;3.35;;
26163;SDS011;13914;48.178;11.716;2023-03-21T05:41:19;6.20;;;3.60;;
26163;SDS011;13914;48.178;11.716;2023-03-21T05:43:45;5.57;;;2.58;;
26163;SDS011;13914;48.178;11.716;2023-03-21T05:46:11;7.00;;;3.25;;
26163;SDS011;13914;48.178;11.716;2023-03-21T05:48:37;6.85;;;3.45;;
26163;SDS011;13914;48.178;11.716;2023-03-21T05:51:03;5.85;;;3.53;;
26163;SDS011;13914;48.178;11.716;2023-03-21T05:53:29;5.10;;;3.08;;
26163;SDS011;13914;48.178;11.716;2023-03-21T05:55:55;5.15;;;2.38;;
26163;SDS011;13914;48.178;11.716;2023-03-21T05:58:21;3.55;;;1.88;;
26163;SDS011;13914;48.178;11.716;2023-03-21T06:00:46;7.07;;;4.17;;
26163;SDS011;13914;48.178;11.716;2023-03-21T06:03:12;4.30;;;2.40;;
26163;SDS011;13914;48.178;11.716;2023-03-21T06:05:38;4.88;;;2.92;;
26163;SDS011;13914;48.178;11.716;2023-03-21T06:08:04;6.87;;;3.60;;
26163;SDS011;13914;48.178;11.716;2023-03-21T06:10:30;6.13;;;2.90;;
26163;SDS011;13914;48.178;11.716;2023-03-21T06:12:56;7.57;;;3.00;;
26163;SDS011;13914;48.178;11.716;2023-03-21T06:15:21;7.95;;;3.72;;
26163;SDS011;13914;48.178;11.716;2023-03-21T06:17:47;8.52;;;3.63;;
26163;SDS011;13914;48.178;11.716;2023-03-21T06:20:13;9.82;;;3.78;;
26163;SDS011;13914;48.178;11.716;2023-03-21T06:22:39;6.40;;;3.30;;
26163;SDS011;13914;48.178;11.716;2023-03-21T06:25:06;5.53;;;3.08;;
26163;SDS011;13914;48.178;11.716;2023-03-21T06:27:33;6.93;;;3.00;;
26163;SDS011;13914;48.178;11.716;2023-03-21T06:29:59;5.90;;;4.10;;
26163;SDS011;13914;48.178;11.716;2023-03-21T06:32:25;7.88;;;3.97;;
26163;SDS011;13914;48.178;11.716;2023-03-21T06:34:51;8.68;;;3.85;;
26163;SDS011;13914;48.178;11.716;2023-03-21T06:37:17;8.35;;;3.90;;
26163;SDS011;13914;48.178;11.716;2023-03-21T06:39:44;7.32;;;3.00;;
26163;SDS011;13914;48.178;11.716;2023-03-21T06:42:11;7.45;;;3.50;;
26163;SDS011;13914;48.178;11.716;2023-03-21T06:44:38;9.32;;;3.58;;
26163;SDS011;13914;48.178;11.716;2023-03-21T06:47:03;7.88;;;4.45;;
26163;SDS011;13914;48.178;11.716;2023-03-21T06:49:29;5.55;;;3.78;;
26163;SDS011;13914;48.178;11.716;2023-03-21T06:51:56;8.27;;;4.57;;
26163;SDS011;13914;48.178;11.716;2023-03-21T06:54:22;13.27;;;2.95;;
26163;SDS011;13914;48.178;11.716;2023-03-21T06:56:47;7.57;;;3.70;;
26163;SDS011;13914;48.178;11.716;2023-03-21T06:59:14;6.10;;;3.95;;
26163;SDS011;13914;48.178;11.716;2023-03-21T07:01:40;8.65;;;4.45;;
26163;SDS011;13914;48.178;11.716;2023-03-21T07:04:07;7.53;;;4.55;;
26163;SDS011;13914;48.178;11.716;2023-03-21T07:06:33;8.25;;;4.55;;
26163;SDS011;13914;48.178;11.716;2023-03-21T07:09:00;4.22;;;2.75;;
26163;SDS011;13914;48.178;11.716;2023-03-21T07:11:26;8.65;;;3.35;;
26163;SDS011;13914;48.178;11.716;2023-03-21T07:13:52;6.95;;;3.58;;
26163;SDS011;13914;48.178;11.716;2023-03-21T07:16:18;9.48;;;4.60;;
26163;SDS011;13914;48.178;11.716;2023-03-21T07:18:45;11.25;;;4.50;;
26163;SDS011;13914;48.178;11.716;2023-03-21T07:23:38;8.65;;;3.97;;
26163;SDS011;13914;48.178;11.716;2023-03-21T07:26:04;6.63;;;2.95;;
26163;SDS011;13914;48.178;11.716;2023-03-21T07:28:31;9.07;;;4.95;;
26163;SDS011;13914;48.178;11.716;2023-03-21T07:33:31;8.18;;;4.72;;
26163;SDS011;13914;48.178;11.716;2023-03-21T07:35:57;10.85;;;4.13;;
26163;SDS011;13914;48.178;11.716;2023-03-21T07:38:24;6.32;;;3.58;;
26163;SDS011;13914;48.178;11.716;2023-03-21T07:40:51;7.60;;;3.75;;
26163;SDS011;13914;48.178;11.716;2023-03-21T07:43:17;7.70;;;4.90;;
26163;SDS011;13914;48.178;11.716;2023-03-21T07:45:44;6.32;;;3.65;;
26163;SDS011;13914;48.178;11.716;2023-03-21T07:48:12;9.63;;;3.83;;
26163;SDS011;13914;48.178;11.716;2023-03-21T07:50:39;9.10;;;4.22;;
26163;SDS011;13914;48.178;11.716;2023-03-21T07:53:05;6.85;;;3.70;;
26163;SDS011;13914;48.178;11.716;2023-03-21T07:58:01;8.52;;;4.50;;
26163;SDS011;13914;48.178;11.716;2023-03-21T08:00:27;8.00;;;4.55;;
26163;SDS011;13914;48.178;11.716;2023-03-21T08:02:53;6.68;;;3.45;;
26163;SDS011;13914;48.178;11.716;2023-03-21T08:05:22;8.60;;;5.07;;
26163;SDS011;13914;48.178;11.716;2023-03-21T08:07:53;7.93;;;3.90;;
26163;SDS011;13914;48.178;11.716;2023-03-21T08:10:19;6.75;;;4.25;;
26163;SDS011;13914;48.178;11.716;2023-03-21T08:12:45;8.52;;;4.40;;
26163;SDS011;13914;48.178;11.716;2023-03-21T08:15:11;7.55;;;5.00;;
26163;SDS011;13914;48.178;11.716;2023-03-21T08:17:38;8.70;;;5.10;;
26163;SDS011;13914;48.178;11.716;2023-03-21T08:22:32;7.40;;;3.55;;
26163;SDS011;13914;48.178;11.716;2023-03-21T08:25:00;6.55;;;3.78;;
26163;SDS011;13914;48.178;11.716;2023-03-21T08:27:30;6.32;;;4.07;;
26163;SDS011;13914;48.178;11.716;2023-03-21T08:29:57;5.90;;;4.18;;
26163;SDS011;13914;48.178;11.716;2023-03-21T08:32:23;5.80;;;3.42;;
26163;SDS011;13914;48.178;11.716;2023-03-21T08:34:54;7.32;;;4.57;;
26163;SDS011;13914;48.178;11.716;2023-03-21T08:37:22;6.68;;;3.42;;
26163;SDS011;13914;48.178;11.716;2023-03-21T08:39:49;8.20;;;4.65;;
26163;SDS011;13914;48.178;11.716;2023-03-21T08:44:41;6.57;;;3.67;;
26163;SDS011;13914;48.178;11.716;2023-03-21T08:47:07;9.70;;;4.65;;
26163;SDS011;13914;48.178;11.716;2023-03-21T08:49:36;7.20;;;3.58;;
26163;SDS011;13914;48.178;11.716;2023-03-21T08:52:02;8.50;;;4.72;;
26163;SDS011;13914;48.178;11.716;2023-03-21T08:54:30;9.30;;;5.30;;
26163;SDS011;13914;48.178;11.716;2023-03-21T08:56:56;8.32;;;4.97;;
26163;SDS011;13914;48.178;11.716;2023-03-21T08:59:22;12.97;;;5.40;;
26163;SDS011;13914;48.178;11.716;2023-03-21T09:01:48;11.48;;;5.47;;
26163;SDS011;13914;48.178;11.716;2023-03-21T09:04:14;5.45;;;2.10;;
26163;SDS011;13914;48.178;11.716;2023-03-21T09:06:43;10.32;;;5.40;;
26163;SDS011;13914;48.178;11.716;2023-03-21T09:09:12;18.88;;;5.18;;
26163;SDS011;13914;48.178;11.716;2023-03-21T09:11:40;11.15;;;5.28;;
26163;SDS011;13914;48.178;11.716;2023-03-21T09:14:05;12.40;;;5.55;;
26163;SDS011;13914;48.178;11.716;2023-03-21T09:16:32;6.93;;;3.05;;
26163;SDS011;13914;48.178;11.716;2023-03-21T09:18:58;7.43;;;3.67;;
26163;SDS011;13914;48.178;11.716;2023-03-21T09:21:25;8.15;;;3.97;;
26163;SDS011;13914;48.178;11.716;2023-03-21T09:23:53;5.47;;;3.53;;
26163;SDS011;13914;48.178;11.716;2023-03-21T09:26:22;6.13;;;3.22;;
26163;SDS011;13914;48.178;11.716;2023-03-21T09:28:50;11.20;;;4.35;;
26163;SDS011;13914;48.178;11.716;2023-03-21T09:31:17;5.50;;;3.22;;
26163;SDS011;13914;48.178;11.716;2023-03-21T09:33:47;8.98;;;3.70;;
26163;SDS011;13914;48.178;11.716;2023-03-21T09:36:14;6.45;;;4.18;;
26163;SDS011;13914;48.178;11.716;2023-03-21T09:46:59;6.90;;;4.07;;
26163;SDS011;13914;48.178;11.716;2023-03-21T09:49:41;9.90;;;3.47;;
26163;SDS011;13914;48.178;11.716;2023-03-21T09:52:21;9.85;;;3.13;;
26163;SDS011;13914;48.178;11.716;2023-03-21T09:55:18;7.32;;;3.38;;
26163;SDS011;13914;48.178;11.716;2023-03-21T09:57:49;8.25;;;3.53;;
26163;SDS011;13914;48.178;11.716;2023-03-21T10:00:53;5.93;;;3.72;;
26163;SDS011;13914;48.178;11.716;2023-03-21T10:03:34;7.10;;;3.78;;
26163;SDS011;13914;48.178;11.716;2023-03-21T10:06:03;7.15;;;4.47;;
26163;SDS011;13914;48.178;11.716;2023-03-21T10:08:38;6.03;;;2.90;;
26163;SDS011;13914;48.178;11.716;2023-03-21T10:11:12;6.45;;;3.15;;
26163;SDS011;13914;48.178;11.716;2023-03-21T10:16:24;10.93;;;3.80;;
26163;SDS011;13914;48.178;11.716;2023-03-21T10:19:09;7.28;;;3.42;;
26163;SDS011;13914;48.178;11.716;2023-03-21T10:21:39;5.45;;;3.00;;
26163;SDS011;13914;48.178;11.716;2023-03-21T10:24:17;8.82;;;4.05;;
26163;SDS011;13914;48.178;11.716;2023-03-21T10:26:48;4.40;;;2.65;;
26163;SDS011;13914;48.178;11.716;2023-03-21T10:29:16;13.07;;;3.67;;
26163;SDS011;13914;48.178;11.716;2023-03-21T10:31:44;5.90;;;3.55;;
26163;SDS011;13914;48.178;11.716;2023-03-21T10:34:15;6.72;;;3.28;;
26163;SDS011;13914;48.178;11.716;2023-03-21T10:37:02;7.55;;;2.90;;
26163;SDS011;13914;48.178;11.716;2023-03-21T10:39:33;5.63;;;3.47;;
26163;SDS011;13914;48.178;11.716;2023-03-21T10:42:05;5.30;;;3.00;;
26163;SDS011;13914;48.178;11.716;2023-03-21T10:44:40;5.95;;;3.13;;
26163;SDS011;13914;48.178;11.716;2023-03-21T10:47:14;6.25;;;3.10;;
26163;SDS011;13914;48.178;11.716;2023-03-21T10:50:00;4.70;;;2.67;;
26163;SDS011;13914;48.178;11.716;2023-03-21T10:52:29;8.35;;;3.75;;
26163;SDS011;13914;48.178;11.716;2023-03-21T10:55:07;8.07;;;4.05;;
26163;SDS011;13914;48.178;11.716;2023-03-21T10:58:01;6.25;;;3.05;;
26163;SDS011;13914;48.178;11.716;2023-03-21T11:00:39;4.90;;;3.28;;
26163;SDS011;13914;48.178;11.716;2023-03-21T11:03:18;9.05;;;2.60;;
26163;SDS011;13914;48.178;11.716;2023-03-21T11:05:57;8.23;;;3.15;;
26163;SDS011;13914;48.178;11.716;2023-03-21T11:08:46;6.50;;;3.15;;
26163;SDS011;13914;48.178;11.716;2023-03-21T11:19:49;4.97;;;2.75;;
26163;SDS011;13914;48.178;11.716;2023-03-21T11:22:30;5.22;;;3.25;;
26163;SDS011;13914;48.178;11.716;2023-03-21T11:25:08;6.20;;;2.97;;
26163;SDS011;13914;48.178;11.716;2023-03-21T11:27:48;9.55;;;2.90;;
26163;SDS011;13914;48.178;11.716;2023-03-21T11:30:18;5.47;;;2.90;;
26163;SDS011;13914;48.178;11.716;2023-03-21T11:32:55;7.47;;;3.45;;
26163;SDS011;13914;48.178;11.716;2023-03-21T11:35:24;3.70;;;1.92;;
26163;SDS011;13914;48.178;11.716;2023-03-21T11:37:57;4.70;;;2.47;;
26163;SDS011;13914;48.178;11.716;2023-03-21T11:40:28;5.80;;;3.03;;
26163;SDS011;13914;48.178;11.716;2023-03-21T11:42:59;4.00;;;2.20;;
26163;SDS011;13914;48.178;11.716;2023-03-21T11:48:47;4.18;;;2.65;;
26163;SDS011;13914;48.178;11.716;2023-03-21T11:51:17;4.15;;;2.70;;
26163;SDS011;13914;48.178;11.716;2023-03-21T11:54:09;6.03;;;2.63;;
26163;SDS011;13914;48.178;11.716;2023-03-21T11:56:47;3.42;;;1.50;;
26163;SDS011;13914;48.178;11.716;2023-03-21T11:59:20;3.47;;;2.10;;
26163;SDS011;13914;48.178;11.716;2023-03-21T12:05:26;4.55;;;1.67;;
26163;SDS011;13914;48.178;11.716;2023-03-21T12:10:45;5.00;;;2.22;;
26163;SDS011;13914;48.178;11.716;2023-03-21T12:24:49;3.08;;;1.73;;
26163;SDS011;13914;48.178;11.716;2023-03-21T12:32:50;4.97;;;1.83;;
26163;SDS011;13914;48.178;11.716;2023-03-21T12:38:19;2.90;;;1.80;;
26163;SDS011;13914;48.178;11.716;2023-03-21T12:49:02;5.03;;;2.00;;
26163;SDS011;13914;48.178;11.716;2023-03-21T12:51:55;3.22;;;1.83;;
26163;SDS011;13914;48.178;11.716;2023-03-21T12:54:46;8.05;;;2.00;;
26163;SDS011;13914;48.178;11.716;2023-03-21T12:57:36;3.50;;;1.67;;
26163;SDS011;13914;48.178;11.716;2023-03-21T13:03:03;4.15;;;1.95;;
26163;SDS011;13914;48.178;11.716;2023-03-21T13:05:41;5.30;;;1.67;;
26163;SDS011;13914;48.178;11.716;2023-03-21T13:08:22;2.97;;;1.60;;
26163;SDS011;13914;48.178;11.716;2023-03-21T13:10:53;2.75;;;1.67;;
26163;SDS011;13914;48.178;11.716;2023-03-21T13:16:23;2.90;;;1.23;;
26163;SDS011;13914;48.178;11.716;2023-03-21T13:19:03;4.03;;;1.50;;
26163;SDS011;13914;48.178;11.716;2023-03-21T13:27:18;3.30;;;2.10;;
26163;SDS011;13914;48.178;11.716;2023-03-21T13:30:04;4.32;;;1.60;;
26163;SDS011;13914;48.178;11.716;2023-03-21T13:32:50;4.70;;;1.90;;
26163;SDS011;13914;48.178;11.716;2023-03-21T13:35:37;3.88;;;1.40;;
26163;SDS011;13914;48.178;11.716;2023-03-21T13:40:47;2.97;;;1.30;;
26163;SDS011;13914;48.178;11.716;2023-03-21T13:43:33;4.20;;;1.20;;
26163;SDS011;13914;48.178;11.716;2023-03-21T13:46:08;4.75;;;1.40;;
26163;SDS011;13914;48.178;11.716;2023-03-21T13:54:01;3.38;;;1.33;;
26163;SDS011;13914;48.178;11.716;2023-03-21T13:59:11;2.80;;;1.13;;
26163;SDS011;13914;48.178;11.716;2023-03-21T14:04:55;6.00;;;1.52;;
26163;SDS011;13914;48.178;11.716;2023-03-21T14:10:00;2.72;;;1.60;;
26163;SDS011;13914;48.178;11.716;2023-03-21T14:17:51;2.72;;;1.58;;
26163;SDS011;13914;48.178;11.716;2023-03-21T14:22:54;4.55;;;1.35;;
26163;SDS011;13914;48.178;11.716;2023-03-21T14:25:21;2.83;;;1.48;;
26163;SDS011;13914;48.178;11.716;2023-03-21T14:27:51;2.15;;;1.20;;
26163;SDS011;13914;48.178;11.716;2023-03-21T14:30:23;2.20;;;1.15;;
26163;SDS011;13914;48.178;11.716;2023-03-21T14:33:11;4.50;;;1.85;;
26163;SDS011;13914;48.178;11.716;2023-03-21T14:35:51;2.55;;;1.30;;
26163;SDS011;13914;48.178;11.716;2023-03-21T14:38:22;4.25;;;1.38;;
26163;SDS011;13914;48.178;11.716;2023-03-21T14:40:52;3.22;;;1.50;;
26163;SDS011;13914;48.178;11.716;2023-03-21T14:43:20;3.25;;;1.60;;
26163;SDS011;13914;48.178;11.716;2023-03-21T14:45:49;6.20;;;1.83;;
26163;SDS011;13914;48.178;11.716;2023-03-21T14:48:17;2.28;;;1.05;;
26163;SDS011;13914;48.178;11.716;2023-03-21T14:50:47;2.63;;;1.40;;
26163;SDS011;13914;48.178;11.716;2023-03-21T14:53:20;3.53;;;2.28;;
26163;SDS011;13914;48.178;11.716;2023-03-21T14:56:00;5.68;;;1.67;;
26163;SDS011;13914;48.178;11.716;2023-03-21T14:58:31;3.90;;;1.80;;
26163;SDS011;13914;48.178;11.716;2023-03-21T15:01:02;3.85;;;1.77;;
26163;SDS011;13914;48.178;11.716;2023-03-21T15:03:30;5.35;;;1.70;;
26163;SDS011;13914;48.178;11.716;2023-03-21T15:05:57;3.63;;;1.95;;
26163;SDS011;13914;48.178;11.716;2023-03-21T15:08:24;5.63;;;1.75;;
26163;SDS011;13914;48.178;11.716;2023-03-21T15:10:53;1.33;;;0.95;;
26163;SDS011;13914;48.178;11.716;2023-03-21T15:13:22;2.10;;;1.27;;
26163;SDS011;13914;48.178;11.716;2023-03-21T15:15:52;1.88;;;1.25;;
26163;SDS011;13914;48.178;11.716;2023-03-21T15:18:26;5.43;;;1.60;;
26163;SDS011;13914;48.178;11.716;2023-03-21T15:20:56;5.20;;;2.13;;
26163;SDS011;13914;48.178;11.716;2023-03-21T15:23:29;5.45;;;1.90;;
26163;SDS011;13914;48.178;11.716;2023-03-21T15:26:02;3.65;;;1.77;;
26163;SDS011;13914;48.178;11.716;2023-03-21T15:28:30;5.10;;;2.22;;
26163;SDS011;13914;48.178;11.716;2023-03-21T15:30:58;5.30;;;2.22;;
26163;SDS011;13914;48.178;11.716;2023-03-21T15:33:25;3.30;;;1.80;;
26163;SDS011;13914;48.178;11.716;2023-03-21T15:35:52;3.83;;;1.67;;
26163;SDS011;13914;48.178;11.716;2023-03-21T15:38:22;2.72;;;1.73;;
26163;SDS011;13914;48.178;11.716;2023-03-21T15:43:43;5.95;;;1.30;;
26163;SDS011;13914;48.178;11.716;2023-03-21T15:46:14;8.57;;;1.95;;
26163;SDS011;13914;48.178;11.716;2023-03-21T15:49:05;2.95;;;1.42;;
26163;SDS011;13914;48.178;11.716;2023-03-21T15:51:36;11.18;;;1.60;;
26163;SDS011;13914;48.178;11.716;2023-03-21T15:54:04;12.23;;;3.00;;
26163;SDS011;13914;48.178;11.716;2023-03-21T15:56:40;5.15;;;1.85;;
26163;SDS011;13914;48.178;11.716;2023-03-21T15:59:11;4.68;;;1.77;;
26163;SDS011;13914;48.178;11.716;2023-03-21T16:01:44;3.53;;;1.65;;
26163;SDS011;13914;48.178;11.716;2023-03-21T16:04:15;5.00;;;1.60;;
26163;SDS011;13914;48.178;11.716;2023-03-21T16:07:10;3.33;;;1.60;;
26163;SDS011;13914;48.178;11.716;2023-03-21T16:09:42;3.33;;;1.70;;
26163;SDS011;13914;48.178;11.716;2023-03-21T16:12:12;3.40;;;1.83;;
26163;SDS011;13914;48.178;11.716;2023-03-21T16:14:39;2.97;;;1.65;;
26163;SDS011;13914;48.178;11.716;2023-03-21T16:17:21;4.07;;;1.38;;
26163;SDS011;13914;48.178;11.716;2023-03-21T16:19:51;3.30;;;1.90;;
26163;SDS011;13914;48.178;11.716;2023-03-21T16:22:18;3.03;;;1.75;;
26163;SDS011;13914;48.178;11.716;2023-03-21T16:24:45;4.93;;;1.90;;
26163;SDS011;13914;48.178;11.716;2023-03-21T16:27:19;3.83;;;1.67;;
26163;SDS011;13914;48.178;11.716;2023-03-21T16:29:45;2.78;;;2.00;;
26163;SDS011;13914;48.178;11.716;2023-03-21T16:32:13;4.10;;;2.03;;
26163;SDS011;13914;48.178;11.716;2023-03-21T16:34:41;2.92;;;1.98;;
26163;SDS011;13914;48.178;11.716;2023-03-21T16:37:08;4.90;;;2.15;;
26163;SDS011;13914;48.178;11.716;2023-03-21T16:39:40;3.97;;;1.83;;
26163;SDS011;13914;48.178;11.716;2023-03-21T16:42:05;2.67;;;1.40;;
26163;SDS011;13914;48.178;11.716;2023-03-21T16:44:31;4.75;;;2.65;;
26163;SDS011;13914;48.178;11.716;2023-03-21T16:46:58;4.43;;;1.92;;
26163;SDS011;13914;48.178;11.716;2023-03-21T16:49:24;4.38;;;1.85;;
26163;SDS011;13914;48.178;11.716;2023-03-21T16:51:52;4.03;;;1.55;;
26163;SDS011;13914;48.178;11.716;2023-03-21T16:54:20;2.83;;;1.38;;
26163;SDS011;13914;48.178;11.716;2023-03-21T16:56:48;2.40;;;1.40;;
26163;SDS011;13914;48.178;11.716;2023-03-21T16:59:18;3.88;;;1.60;;
26163;SDS011;13914;48.178;11.716;2023-03-21T17:01:45;3.20;;;2.10;;
26163;SDS011;13914;48.178;11.716;2023-03-21T17:04:12;2.03;;;1.00;;
26163;SDS011;13914;48.178;11.716;2023-03-21T17:06:50;5.50;;;1.48;;
26163;SDS011;13914;48.178;11.716;2023-03-21T17:09:18;4.30;;;2.22;;
26163;SDS011;13914;48.178;11.716;2023-03-21T17:11:48;2.30;;;1.60;;
26163;SDS011;13914;48.178;11.716;2023-03-21T17:14:14;3.58;;;2.00;;
26163;SDS011;13914;48.178;11.716;2023-03-21T17:16:42;5.22;;;2.70;;
26163;SDS011;13914;48.178;11.716;2023-03-21T17:21:36;3.28;;;1.55;;
26163;SDS011;13914;48.178;11.716;2023-03-21T17:24:02;4.18;;;2.00;;
26163;SDS011;13914;48.178;11.716;2023-03-21T17:26:28;9.25;;;2.83;;
26163;SDS011;13914;48.178;11.716;2023-03-21T17:28:54;3.70;;;2.55;;
26163;SDS011;13914;48.178;11.716;2023-03-21T17:31:22;9.40;;;2.55;;